Terminal Aerodrome Forecast
Issued by NWS

Home | Current Version | Previous Version | Text Only | Print | Product List | Glossary On
Versions: 1 2 3 4 5 6 7 8 9 10 11 12 13 14 15 16 17 18 19 20 21 22 23 24
000
FTUS46 KHNX 312323
TAFBFL
TAF
KBFL 312323Z 0100/0124 VRB03KT 6SM HZ SKC
     FM010400 VRB03KT 4SM HZ SKC
     FM011000 VRB03KT 2SM BR SKC
     FM011800 VRB03KT 4SM HZ SKC=

USA.gov is the U.S. government's official web portal to all federal, state and local government web resources and services.